createdAt,value
2023-02-27T00:03:49.743Z,100876.00
2023-02-27T00:07:09.162Z,100875.60
2023-02-27T00:10:48.247Z,100879.80
2023-02-27T00:14:26.378Z,100880.40
2023-02-27T00:18:02.852Z,100877.60
2023-02-27T00:22:02.140Z,100885.60
2023-02-27T00:25:35.852Z,100881.20
2023-02-27T00:29:06.307Z,100883.60
2023-02-27T00:36:47.905Z,100892.40
2023-02-27T00:40:19.082Z,100890.80
2023-02-27T00:43:46.888Z,100889.40
2023-02-27T00:47:24.280Z,100892.60
2023-02-27T00:50:59.261Z,100888.60
2023-02-27T00:54:34.994Z,100881.60
2023-02-27T00:58:06.229Z,100881.60
2023-02-27T01:01:43.356Z,100884.80
2023-02-27T01:05:42.834Z,100878.40
2023-02-27T01:09:18.243Z,100875.80
2023-02-27T01:12:52.828Z,100869.60
2023-02-27T01:16:32.144Z,100870.80
2023-02-27T01:20:30.286Z,100869.00
2023-02-27T01:24:14.144Z,100873.00
2023-02-27T01:27:49.939Z,100870.60
2023-02-27T01:31:25.393Z,100867.60
2023-02-27T01:35:00.147Z,100878.60
2023-02-27T01:38:43.456Z,100881.60
2023-02-27T01:42:22.988Z,100885.20
2023-02-27T01:46:00.604Z,100878.00
2023-02-27T01:49:37.142Z,100881.20
2023-02-27T01:53:18.947Z,100889.60
2023-02-27T01:57:00.220Z,100886.20
2023-02-27T02:00:40.945Z,100894.60
2023-02-27T02:04:23.227Z,100896.80
2023-02-27T02:08:00.550Z,100900.80
2023-02-27T02:11:40.776Z,100895.20
2023-02-27T02:15:28.698Z,100892.40
2023-02-27T02:19:07.516Z,100890.40
2023-02-27T02:22:57.557Z,100886.60
2023-02-27T02:27:02.162Z,100894.00
2023-02-27T02:30:38.234Z,100885.20
2023-02-27T02:34:25.968Z,100892.40
2023-02-27T02:38:06.682Z,100902.20
2023-02-27T02:41:58.043Z,100899.60
2023-02-27T02:45:19.009Z,100900.00
2023-02-27T02:48:56.419Z,100906.60
2023-02-27T02:52:37.519Z,100914.00
2023-02-27T02:59:50.300Z,100919.40
2023-02-27T03:07:15.209Z,100924.20
2023-02-27T03:10:30.571Z,100926.80
2023-02-27T03:14:07.899Z,100930.40
2023-02-27T03:17:46.110Z,100935.00
2023-02-27T03:21:32.164Z,100936.20
2023-02-27T03:25:31.022Z,100946.80
2023-02-27T03:32:33.086Z,100953.60
2023-02-27T03:35:50.549Z,100957.60
2023-02-27T03:40:02.629Z,100957.80
2023-02-27T03:44:05.222Z,100959.40
2023-02-27T03:47:46.125Z,100958.00
2023-02-27T03:51:27.661Z,100965.60
2023-02-27T03:55:30.221Z,100962.20
2023-02-27T03:59:10.214Z,100969.20
2023-02-27T04:02:51.536Z,100968.20
2023-02-27T04:06:16.241Z,100972.40
2023-02-27T04:09:38.712Z,100974.60
2023-02-27T04:13:29.227Z,100980.20
2023-02-27T04:17:33.411Z,100978.00
2023-02-27T04:21:41.607Z,100985.80
2023-02-27T04:25:27.886Z,100988.20
2023-02-27T04:29:08.143Z,100980.60
2023-02-27T04:33:12.147Z,100988.20
2023-02-27T04:37:22.240Z,100987.00
2023-02-27T04:40:59.046Z,100993.60
2023-02-27T04:44:39.044Z,100998.80
2023-02-27T04:48:15.978Z,100991.80
2023-02-27T04:51:54.950Z,100997.40
2023-02-27T04:55:32.010Z,101000.80
2023-02-27T04:59:16.793Z,101002.60
2023-02-27T05:03:00.257Z,101000.80
2023-02-27T05:09:46.007Z,101013.20
2023-02-27T05:13:00.128Z,101019.00
2023-02-27T05:16:59.098Z,101020.40
2023-02-27T05:20:36.046Z,101021.80
2023-02-27T05:24:10.374Z,101027.80
2023-02-27T05:27:52.989Z,101020.80
2023-02-27T05:31:34.673Z,101022.00
2023-02-27T05:35:16.775Z,101020.00
2023-02-27T05:39:15.770Z,101030.20
2023-02-27T05:43:19.999Z,101037.60
2023-02-27T05:47:20.151Z,101037.20
2023-02-27T05:54:19.408Z,101043.60
2023-02-27T05:58:18.147Z,101049.20
2023-02-27T06:01:26.900Z,101056.00
2023-02-27T06:03:55.967Z,101062.00
2023-02-27T06:06:25.104Z,101063.20
2023-02-27T06:09:09.161Z,101068.40
2023-02-27T06:11:51.861Z,101070.60
2023-02-27T06:14:20.045Z,101073.00
2023-02-27T06:17:02.405Z,101071.20
2023-02-27T06:19:44.763Z,101074.60
2023-02-27T06:22:26.823Z,101075.40
2023-02-27T06:24:55.061Z,101073.80
2023-02-27T06:27:37.424Z,101073.60
2023-02-27T06:30:20.264Z,101069.60
2023-02-27T06:33:03.203Z,101072.20
2023-02-27T06:35:49.466Z,101074.00
2023-02-27T06:38:31.743Z,101073.80
2023-02-27T06:43:56.822Z,101078.20
2023-02-27T06:46:39.415Z,101079.60
2023-02-27T06:49:07.964Z,101082.40
2023-02-27T06:51:50.128Z,101084.60
2023-02-27T06:54:32.293Z,101084.80
2023-02-27T06:59:57.065Z,101096.60
2023-02-27T07:02:39.411Z,101094.40
2023-02-27T07:05:21.885Z,101092.80
2023-02-27T07:08:04.665Z,101099.00
2023-02-27T07:10:33.139Z,101097.40
2023-02-27T07:13:01.772Z,101104.60
2023-02-27T07:15:30.171Z,101102.80
2023-02-27T07:18:12.347Z,101100.80
2023-02-27T07:20:55.461Z,101105.60
2023-02-27T07:23:24.044Z,101107.20
2023-02-27T07:28:35.097Z,101111.60
2023-02-27T07:31:18.042Z,101111.80
2023-02-27T07:34:00.254Z,101116.00
2023-02-27T07:36:42.533Z,101116.20
2023-02-27T07:39:24.973Z,101120.60
2023-02-27T07:41:53.751Z,101118.40
2023-02-27T07:44:22.550Z,101116.60
2023-02-27T07:46:51.420Z,101123.00
2023-02-27T07:49:20.274Z,101120.60
2023-02-27T07:51:49.319Z,101124.80
2023-02-27T07:54:33.234Z,101117.00
2023-02-27T07:57:15.905Z,101121.20
2023-02-27T07:59:44.380Z,101129.00
2023-02-27T08:02:13.567Z,101130.20
2023-02-27T08:04:42.349Z,101128.80
2023-02-27T08:07:11.084Z,101127.00
2023-02-27T08:09:40.952Z,101126.40
2023-02-27T08:12:12.786Z,101128.40
2023-02-27T08:14:41.162Z,101128.00
2023-02-27T08:17:23.454Z,101134.60
2023-02-27T08:19:52.069Z,101137.00
2023-02-27T08:22:21.158Z,101133.80
2023-02-27T08:24:50.178Z,101131.80
2023-02-27T08:27:18.812Z,101135.20
2023-02-27T08:30:01.686Z,101134.60
2023-02-27T08:32:30.494Z,101138.40
2023-02-27T08:35:13.918Z,101135.60
2023-02-27T08:37:56.104Z,101142.00
2023-02-27T08:40:24.925Z,101140.80
2023-02-27T08:42:53.322Z,101147.00
2023-02-27T08:45:21.988Z,101149.20
2023-02-27T08:47:50.153Z,101145.40
2023-02-27T08:53:00.906Z,101145.00
2023-02-27T08:55:29.605Z,101147.20
2023-02-27T08:57:58.325Z,101147.80
2023-02-27T09:00:27.140Z,101148.00
2023-02-27T09:03:09.583Z,101145.20
2023-02-27T09:05:51.883Z,101160.80
2023-02-27T09:08:20.580Z,101153.80
2023-02-27T09:10:49.263Z,101163.60
2023-02-27T09:13:18.863Z,101174.40
2023-02-27T09:15:48.485Z,101172.80
2023-02-27T09:18:17.269Z,101169.40
2023-02-27T09:20:46.110Z,101171.20
2023-02-27T09:23:14.743Z,101174.80
2023-02-27T09:25:44.051Z,101181.00
2023-02-27T09:28:30.156Z,101168.60
2023-02-27T09:31:03.626Z,101173.00
2023-02-27T09:34:17.936Z,101170.20
2023-02-27T09:37:00.527Z,101174.00
2023-02-27T09:39:46.399Z,101170.40
2023-02-27T09:42:24.866Z,101173.60
2023-02-27T09:48:30.924Z,101175.20
2023-02-27T09:51:01.483Z,101177.00
2023-02-27T09:53:53.263Z,101174.20
2023-02-27T10:00:15.922Z,101177.80
2023-02-27T10:03:12.407Z,101176.60
2023-02-27T10:06:07.226Z,101174.00
2023-02-27T10:09:22.028Z,101176.00
2023-02-27T10:12:13.823Z,101170.20
2023-02-27T10:14:59.338Z,101170.20
2023-02-27T10:17:36.626Z,101170.60
2023-02-27T10:20:17.507Z,101166.60
2023-02-27T10:25:52.187Z,101162.20
2023-02-27T10:28:23.305Z,101162.80
2023-02-27T10:30:57.175Z,101168.60
2023-02-27T10:33:45.070Z,101164.00
2023-02-27T10:36:27.038Z,101168.20
2023-02-27T10:39:09.137Z,101173.40
2023-02-27T10:41:40.018Z,101174.40
2023-02-27T10:44:24.854Z,101177.20
2023-02-27T10:46:59.831Z,101170.80
2023-02-27T10:49:33.989Z,101165.20
2023-02-27T10:52:16.351Z,101168.00
2023-02-27T10:58:23.635Z,101170.00
2023-02-27T11:01:02.854Z,101161.40
2023-02-27T11:03:41.811Z,101158.80
2023-02-27T11:06:23.358Z,101162.20
2023-02-27T11:09:19.407Z,101155.00
2023-02-27T11:11:49.219Z,101148.80
2023-02-27T11:14:33.200Z,101142.80
2023-02-27T11:17:03.875Z,101147.20
2023-02-27T11:19:35.852Z,101141.40
2023-02-27T11:22:23.953Z,101146.60
2023-02-27T11:25:22.626Z,101153.80
2023-02-27T11:27:52.938Z,101155.00
2023-02-27T11:30:29.844Z,101153.40
2023-02-27T11:35:57.183Z,101152.20
2023-02-27T11:38:40.786Z,101151.40
2023-02-27T11:41:11.142Z,101147.40
2023-02-27T11:43:53.173Z,101144.40
2023-02-27T11:46:48.044Z,101149.20
2023-02-27T11:49:45.109Z,101143.40
2023-02-27T11:52:53.894Z,101139.40
2023-02-27T11:55:30.687Z,101135.20
2023-02-27T11:58:23.177Z,101135.00
2023-02-27T12:01:03.988Z,101128.40
2023-02-27T12:03:57.197Z,101133.00
2023-02-27T12:06:58.708Z,101140.80
2023-02-27T12:09:53.614Z,101137.80
2023-02-27T12:12:46.989Z,101150.40
2023-02-27T12:16:11.969Z,101154.40
2023-02-27T12:18:45.311Z,101155.80
2023-02-27T12:21:34.557Z,101164.40
2023-02-27T12:24:30.558Z,101169.60
2023-02-27T12:27:34.387Z,101180.00
2023-02-27T12:30:19.121Z,101177.80
2023-02-27T12:33:10.242Z,101178.60
2023-02-27T12:35:43.213Z,101175.80
2023-02-27T12:38:15.723Z,101173.60
2023-02-27T12:40:58.683Z,101179.80
2023-02-27T12:43:52.624Z,101181.40
2023-02-27T12:46:56.213Z,101182.80
2023-02-27T12:49:46.620Z,101185.80
2023-02-27T12:55:54.738Z,101179.60
2023-02-27T12:58:51.488Z,101177.80
2023-02-27T13:02:02.741Z,101184.60
2023-02-27T13:04:55.546Z,101182.60
2023-02-27T13:08:08.585Z,101175.00
2023-02-27T13:13:57.569Z,101179.20
2023-02-27T13:16:42.740Z,101179.20
2023-02-27T13:19:20.634Z,101181.00
2023-02-27T13:25:16.719Z,101183.40
2023-02-27T13:27:51.028Z,101184.60
2023-02-27T13:30:38.630Z,101187.20
2023-02-27T13:33:31.769Z,101186.20
2023-02-27T13:36:24.174Z,101193.00
2023-02-27T13:39:41.026Z,101193.60
2023-02-27T13:51:36.109Z,101200.80
2023-02-27T13:54:14.016Z,101199.60
2023-02-27T14:00:21.585Z,101197.00
2023-02-27T14:03:17.747Z,101196.00
2023-02-27T14:05:49.141Z,101204.00
2023-02-27T14:11:40.085Z,101204.60
2023-02-27T14:14:59.127Z,101203.00
2023-02-27T14:17:36.623Z,101206.40
2023-02-27T14:23:24.273Z,101215.00
2023-02-27T14:26:20.946Z,101214.00
2023-02-27T14:29:04.127Z,101215.40
2023-02-27T14:31:47.479Z,101223.00
2023-02-27T14:34:30.933Z,101223.60
2023-02-27T14:37:05.558Z,101229.40
2023-02-27T14:39:37.645Z,101230.20
2023-02-27T14:42:48.781Z,101231.00
2023-02-27T14:45:31.940Z,101226.00
2023-02-27T14:48:00.867Z,101222.60
2023-02-27T14:50:40.754Z,101229.00
2023-02-27T14:53:27.335Z,101231.40
2023-02-27T14:55:59.443Z,101228.00
2023-02-27T14:58:28.802Z,101236.40
2023-02-27T15:01:07.685Z,101243.40
2023-02-27T15:03:58.481Z,101240.00
2023-02-27T15:06:48.065Z,101249.00
2023-02-27T15:09:27.799Z,101248.00
2023-02-27T15:12:19.130Z,101247.80
2023-02-27T15:14:54.227Z,101255.00
2023-02-27T15:17:42.445Z,101260.00
2023-02-27T15:20:30.262Z,101261.60
2023-02-27T15:25:44.749Z,101263.60
2023-02-27T15:28:28.094Z,101270.00
2023-02-27T15:31:20.190Z,101265.40
2023-02-27T15:33:50.885Z,101265.20
2023-02-27T15:36:36.031Z,101270.60
2023-02-27T15:39:21.438Z,101275.40
2023-02-27T15:41:57.768Z,101288.80
2023-02-27T15:44:45.806Z,101295.40
2023-02-27T15:47:32.073Z,101286.60
2023-02-27T15:50:15.838Z,101292.60
2023-02-27T15:53:00.586Z,101289.80
2023-02-27T15:55:35.475Z,101290.40
2023-02-27T15:58:16.234Z,101294.40
2023-02-27T16:01:03.924Z,101299.40
2023-02-27T16:03:45.824Z,101304.20
2023-02-27T16:06:23.553Z,101305.60
2023-02-27T16:08:58.340Z,101305.00
2023-02-27T16:11:31.457Z,101306.60
2023-02-27T16:14:01.163Z,101311.20
2023-02-27T16:16:38.857Z,101313.00
2023-02-27T16:19:32.919Z,101315.00
2023-02-27T16:22:19.600Z,101315.60
2023-02-27T16:24:49.829Z,101318.00
2023-02-27T16:27:30.077Z,101317.80
2023-02-27T16:32:48.340Z,101328.00
2023-02-27T16:35:30.838Z,101334.20
2023-02-27T16:38:02.876Z,101338.00
2023-02-27T16:40:31.951Z,101336.20
2023-02-27T16:43:01.559Z,101335.60
2023-02-27T16:45:32.157Z,101344.60
2023-02-27T16:48:01.564Z,101346.20
2023-02-27T16:50:43.460Z,101342.20
2023-02-27T16:53:11.799Z,101355.40
2023-02-27T16:55:43.691Z,101353.00
2023-02-27T16:58:17.099Z,101358.40
2023-02-27T17:00:59.588Z,101362.00
2023-02-27T17:03:28.462Z,101366.40
2023-02-27T17:05:58.141Z,101366.40
2023-02-27T17:08:26.371Z,101365.00
2023-02-27T17:10:55.204Z,101365.00
2023-02-27T17:13:38.187Z,101366.20
2023-02-27T17:18:50.884Z,101367.60
2023-02-27T17:21:34.786Z,101364.40
2023-02-27T17:24:17.636Z,101366.00
2023-02-27T17:26:46.065Z,101373.00
2023-02-27T17:29:29.055Z,101373.40
2023-02-27T17:31:58.206Z,101376.80
2023-02-27T17:37:37.921Z,101376.40
2023-02-27T17:40:08.578Z,101374.40
2023-02-27T17:48:30.230Z,101381.00
2023-02-27T17:51:14.809Z,101381.40
2023-02-27T17:53:44.500Z,101384.80
2023-02-27T17:56:14.282Z,101384.80
2023-02-27T17:58:46.504Z,101389.00
2023-02-27T18:01:21.714Z,101389.40
2023-02-27T18:04:05.430Z,101390.20
2023-02-27T18:06:34.041Z,101383.20
2023-02-27T18:09:02.511Z,101383.40
2023-02-27T18:11:44.900Z,101388.20
2023-02-27T18:14:27.529Z,101385.80
2023-02-27T18:16:56.206Z,101392.00
2023-02-27T18:19:25.365Z,101393.60
2023-02-27T18:22:09.027Z,101397.40
2023-02-27T18:24:55.980Z,101398.60
2023-02-27T18:27:25.265Z,101399.80
2023-02-27T18:29:54.390Z,101397.00
2023-02-27T18:32:23.070Z,101404.40
2023-02-27T18:34:51.748Z,101407.20
2023-02-27T18:37:20.500Z,101404.40
2023-02-27T18:40:02.924Z,101406.00
2023-02-27T18:42:32.704Z,101411.20
2023-02-27T18:45:01.526Z,101413.00
2023-02-27T18:47:31.178Z,101415.80
2023-02-27T18:50:00.744Z,101420.60
2023-02-27T18:52:31.350Z,101417.80
2023-02-27T18:54:59.627Z,101420.20
2023-02-27T18:57:41.874Z,101419.60
2023-02-27T19:00:25.502Z,101427.80
2023-02-27T19:02:57.283Z,101429.40
2023-02-27T19:05:30.244Z,101438.00
2023-02-27T19:08:01.277Z,101439.20
2023-02-27T19:10:33.994Z,101442.00
2023-02-27T19:13:07.936Z,101446.20
2023-02-27T19:15:39.334Z,101448.80
2023-02-27T19:20:57.472Z,101450.00
2023-02-27T19:26:36.068Z,101451.80
2023-02-27T19:29:08.084Z,101460.00
2023-02-27T19:31:36.785Z,101458.80
2023-02-27T19:34:19.282Z,101461.00
2023-02-27T19:36:49.164Z,101458.00
2023-02-27T19:39:31.893Z,101457.20
2023-02-27T19:42:00.844Z,101462.80
2023-02-27T19:44:29.587Z,101461.00
2023-02-27T19:49:40.586Z,101466.80
2023-02-27T19:52:10.338Z,101467.40
2023-02-27T19:54:39.458Z,101470.40
2023-02-27T19:57:08.856Z,101470.60
2023-02-27T19:59:51.909Z,101473.40
2023-02-27T20:02:21.213Z,101475.80
2023-02-27T20:04:50.327Z,101478.20
2023-02-27T20:07:19.822Z,101477.80
2023-02-27T20:10:02.366Z,101481.60
2023-02-27T20:12:44.945Z,101486.40
2023-02-27T20:15:14.153Z,101482.20
2023-02-27T20:17:42.710Z,101490.40
2023-02-27T20:20:13.065Z,101491.60
2023-02-27T20:22:45.106Z,101492.20
2023-02-27T20:25:14.253Z,101492.40
2023-02-27T20:27:43.167Z,101494.40
2023-02-27T20:30:13.169Z,101494.00
2023-02-27T20:32:41.976Z,101500.20
2023-02-27T20:35:11.585Z,101494.60
2023-02-27T20:37:40.526Z,101497.60
2023-02-27T20:40:13.131Z,101500.40
2023-02-27T20:42:42.113Z,101499.20
2023-02-27T20:45:11.583Z,101495.60
2023-02-27T20:47:40.600Z,101499.40
2023-02-27T20:50:11.812Z,101505.00
2023-02-27T20:52:40.654Z,101506.80
2023-02-27T20:55:10.647Z,101503.60
2023-02-27T20:57:39.531Z,101499.20
2023-02-27T21:00:12.718Z,101505.60
2023-02-27T21:02:41.314Z,101509.60
2023-02-27T21:05:10.469Z,101510.00
2023-02-27T21:07:39.268Z,101510.00
2023-02-27T21:10:09.221Z,101513.40
2023-02-27T21:12:38.207Z,101512.60
2023-02-27T21:15:07.823Z,101512.40
2023-02-27T21:17:37.034Z,101514.40
2023-02-27T21:20:07.790Z,101518.00
2023-02-27T21:22:36.723Z,101515.60
2023-02-27T21:25:06.015Z,101515.80
2023-02-27T21:27:34.606Z,101514.20
2023-02-27T21:30:03.929Z,101521.00
2023-02-27T21:32:32.604Z,101520.60
2023-02-27T21:35:01.909Z,101515.40
2023-02-27T21:37:30.481Z,101522.40
2023-02-27T21:40:13.752Z,101518.80
2023-02-27T21:42:43.870Z,101519.40
2023-02-27T21:45:26.133Z,101522.20
2023-02-27T21:47:55.055Z,101522.60
2023-02-27T21:50:23.823Z,101526.20
2023-02-27T21:52:52.507Z,101525.60
2023-02-27T21:55:21.403Z,101527.80
2023-02-27T21:57:49.897Z,101521.60
2023-02-27T22:00:32.185Z,101520.00
2023-02-27T22:03:00.823Z,101525.20
2023-02-27T22:05:44.584Z,101525.60
2023-02-27T22:08:26.784Z,101521.20
2023-02-27T22:14:07.805Z,101528.40
2023-02-27T22:19:48.193Z,101519.20
2023-02-27T22:22:17.441Z,101521.40
2023-02-27T22:24:46.095Z,101523.60
2023-02-27T22:29:56.873Z,101520.80
2023-02-27T22:32:41.023Z,101522.00
2023-02-27T22:35:24.127Z,101519.40
2023-02-27T22:38:06.306Z,101523.00
2023-02-27T22:43:45.579Z,101521.80
2023-02-27T22:46:51.893Z,101519.40
2023-02-27T22:49:34.116Z,101520.40
2023-02-27T22:52:02.612Z,101522.20
2023-02-27T22:54:31.452Z,101521.40
2023-02-27T22:57:13.557Z,101518.80
2023-02-27T23:00:33.970Z,101516.40
2023-02-27T23:04:08.863Z,101516.20
2023-02-27T23:07:42.984Z,101513.60
2023-02-27T23:15:13.391Z,101524.60
2023-02-27T23:19:17.659Z,101520.80
2023-02-27T23:22:54.884Z,101520.20
2023-02-27T23:26:34.906Z,101523.80
2023-02-27T23:37:27.701Z,101529.20
2023-02-27T23:41:06.542Z,101531.80
2023-02-27T23:44:43.999Z,101527.60
2023-02-27T23:49:13.295Z,101531.80
2023-02-27T23:55:42.018Z,101534.80
2023-02-27T23:58:55.712Z,101534.00
